sensor_id;sensor_type;location;lat;lon;timestamp;P1;durP1;ratioP1;P2;durP2;ratioP2
16906;SDS011;8570;52.380;4.654;2024-03-02T00:04:17;1.10;;;0.90;;
16906;SDS011;8570;52.380;4.654;2024-03-02T00:09:19;2.40;;;0.90;;
16906;SDS011;8570;52.380;4.654;2024-03-02T00:14:21;2.53;;;0.77;;
16906;SDS011;8570;52.380;4.654;2024-03-02T00:19:27;0.60;;;0.60;;
16906;SDS011;8570;52.380;4.654;2024-03-02T00:24:31;0.97;;;0.80;;
16906;SDS011;8570;52.380;4.654;2024-03-02T00:29:35;1.23;;;0.70;;
16906;SDS011;8570;52.380;4.654;2024-03-02T00:34:38;2.43;;;0.70;;
16906;SDS011;8570;52.380;4.654;2024-03-02T00:39:40;1.37;;;0.70;;
16906;SDS011;8570;52.380;4.654;2024-03-02T00:44:42;0.90;;;0.70;;
16906;SDS011;8570;52.380;4.654;2024-03-02T00:49:45;2.53;;;0.80;;
16906;SDS011;8570;52.380;4.654;2024-03-02T00:54:48;0.73;;;0.67;;
16906;SDS011;8570;52.380;4.654;2024-03-02T00:59:58;0.90;;;0.77;;
16906;SDS011;8570;52.380;4.654;2024-03-02T01:05:01;2.07;;;0.80;;
16906;SDS011;8570;52.380;4.654;2024-03-02T01:10:05;1.77;;;0.90;;
16906;SDS011;8570;52.380;4.654;2024-03-02T01:15:08;3.23;;;0.80;;
16906;SDS011;8570;52.380;4.654;2024-03-02T01:20:12;1.37;;;0.90;;
16906;SDS011;8570;52.380;4.654;2024-03-02T01:25:14;1.57;;;0.73;;
16906;SDS011;8570;52.380;4.654;2024-03-02T01:30:15;0.73;;;0.70;;
16906;SDS011;8570;52.380;4.654;2024-03-02T01:35:19;2.47;;;0.77;;
16906;SDS011;8570;52.380;4.654;2024-03-02T01:40:21;1.00;;;0.50;;
16906;SDS011;8570;52.380;4.654;2024-03-02T01:45:26;1.20;;;0.70;;
16906;SDS011;8570;52.380;4.654;2024-03-02T01:50:30;1.13;;;0.80;;
16906;SDS011;8570;52.380;4.654;2024-03-02T01:55:33;0.80;;;0.60;;
16906;SDS011;8570;52.380;4.654;2024-03-02T02:00:35;1.50;;;0.83;;
16906;SDS011;8570;52.380;4.654;2024-03-02T02:05:38;1.10;;;0.80;;
16906;SDS011;8570;52.380;4.654;2024-03-02T02:10:56;2.40;;;1.10;;
16906;SDS011;8570;52.380;4.654;2024-03-02T02:16:06;1.60;;;0.70;;
16906;SDS011;8570;52.380;4.654;2024-03-02T02:21:10;3.27;;;1.20;;
16906;SDS011;8570;52.380;4.654;2024-03-02T02:26:13;2.53;;;1.70;;
16906;SDS011;8570;52.380;4.654;2024-03-02T02:31:15;1.93;;;1.73;;
16906;SDS011;8570;52.380;4.654;2024-03-02T02:36:17;4.20;;;2.13;;
16906;SDS011;8570;52.380;4.654;2024-03-02T02:41:23;4.73;;;2.70;;
16906;SDS011;8570;52.380;4.654;2024-03-02T02:46:33;3.27;;;2.97;;
16906;SDS011;8570;52.380;4.654;2024-03-02T02:51:35;6.60;;;3.37;;
16906;SDS011;8570;52.380;4.654;2024-03-02T02:56:39;3.17;;;2.87;;
16906;SDS011;8570;52.380;4.654;2024-03-02T03:01:40;3.50;;;3.20;;
16906;SDS011;8570;52.380;4.654;2024-03-02T03:06:43;6.87;;;3.00;;
16906;SDS011;8570;52.380;4.654;2024-03-02T03:11:47;3.13;;;2.83;;
16906;SDS011;8570;52.380;4.654;2024-03-02T03:16:49;3.30;;;2.60;;
16906;SDS011;8570;52.380;4.654;2024-03-02T03:21:51;3.23;;;2.50;;
16906;SDS011;8570;52.380;4.654;2024-03-02T03:26:56;3.50;;;2.80;;
16906;SDS011;8570;52.380;4.654;2024-03-02T03:31:58;2.40;;;2.20;;
16906;SDS011;8570;52.380;4.654;2024-03-02T03:37:00;3.03;;;2.07;;
16906;SDS011;8570;52.380;4.654;2024-03-02T03:42:03;4.83;;;2.10;;
16906;SDS011;8570;52.380;4.654;2024-03-02T03:47:06;2.73;;;2.17;;
16906;SDS011;8570;52.380;4.654;2024-03-02T03:52:08;1.90;;;1.80;;
16906;SDS011;8570;52.380;4.654;2024-03-02T03:57:11;2.77;;;1.53;;
16906;SDS011;8570;52.380;4.654;2024-03-02T04:02:13;2.30;;;1.90;;
16906;SDS011;8570;52.380;4.654;2024-03-02T04:07:16;1.90;;;1.70;;
16906;SDS011;8570;52.380;4.654;2024-03-02T04:12:20;4.67;;;1.87;;
16906;SDS011;8570;52.380;4.654;2024-03-02T04:17:24;1.80;;;1.70;;
16906;SDS011;8570;52.380;4.654;2024-03-02T04:22:26;2.73;;;2.30;;
16906;SDS011;8570;52.380;4.654;2024-03-02T04:27:29;4.77;;;1.70;;
16906;SDS011;8570;52.380;4.654;2024-03-02T04:32:32;2.27;;;1.90;;
16906;SDS011;8570;52.380;4.654;2024-03-02T04:37:36;2.93;;;2.03;;
16906;SDS011;8570;52.380;4.654;2024-03-02T04:42:39;1.97;;;1.63;;
16906;SDS011;8570;52.380;4.654;2024-03-02T04:47:43;2.37;;;1.60;;
16906;SDS011;8570;52.380;4.654;2024-03-02T04:52:45;1.83;;;1.53;;
16906;SDS011;8570;52.380;4.654;2024-03-02T04:57:48;1.93;;;1.40;;
16906;SDS011;8570;52.380;4.654;2024-03-02T05:02:51;2.23;;;1.60;;
16906;SDS011;8570;52.380;4.654;2024-03-02T05:07:52;2.80;;;1.83;;
16906;SDS011;8570;52.380;4.654;2024-03-02T05:12:56;3.43;;;1.50;;
16906;SDS011;8570;52.380;4.654;2024-03-02T05:17:59;2.93;;;1.50;;
16906;SDS011;8570;52.380;4.654;2024-03-02T05:23:03;1.67;;;1.23;;
16906;SDS011;8570;52.380;4.654;2024-03-02T05:28:06;3.17;;;1.50;;
16906;SDS011;8570;52.380;4.654;2024-03-02T05:33:08;2.50;;;1.23;;
16906;SDS011;8570;52.380;4.654;2024-03-02T05:38:10;2.07;;;1.60;;
16906;SDS011;8570;52.380;4.654;2024-03-02T05:43:13;3.37;;;2.17;;
16906;SDS011;8570;52.380;4.654;2024-03-02T05:48:15;2.43;;;1.47;;
16906;SDS011;8570;52.380;4.654;2024-03-02T05:53:17;1.27;;;1.10;;
16906;SDS011;8570;52.380;4.654;2024-03-02T05:58:21;1.97;;;1.50;;
16906;SDS011;8570;52.380;4.654;2024-03-02T06:03:33;1.57;;;1.20;;
16906;SDS011;8570;52.380;4.654;2024-03-02T06:08:35;1.30;;;1.10;;
16906;SDS011;8570;52.380;4.654;2024-03-02T06:13:39;2.80;;;1.90;;
16906;SDS011;8570;52.380;4.654;2024-03-02T06:18:40;1.97;;;1.50;;
16906;SDS011;8570;52.380;4.654;2024-03-02T06:23:42;3.17;;;1.50;;
16906;SDS011;8570;52.380;4.654;2024-03-02T06:28:46;1.47;;;1.13;;
16906;SDS011;8570;52.380;4.654;2024-03-02T06:33:48;1.43;;;1.33;;
16906;SDS011;8570;52.380;4.654;2024-03-02T06:38:53;2.93;;;1.37;;
16906;SDS011;8570;52.380;4.654;2024-03-02T06:43:56;2.27;;;1.40;;
16906;SDS011;8570;52.380;4.654;2024-03-02T06:48:59;3.73;;;1.40;;
16906;SDS011;8570;52.380;4.654;2024-03-02T06:54:02;2.63;;;1.30;;
16906;SDS011;8570;52.380;4.654;2024-03-02T06:59:06;2.00;;;1.20;;
16906;SDS011;8570;52.380;4.654;2024-03-02T07:04:10;2.70;;;1.17;;
16906;SDS011;8570;52.380;4.654;2024-03-02T07:09:12;1.87;;;1.23;;
16906;SDS011;8570;52.380;4.654;2024-03-02T07:14:24;2.77;;;1.20;;
16906;SDS011;8570;52.380;4.654;2024-03-02T07:19:46;2.50;;;1.00;;
16906;SDS011;8570;52.380;4.654;2024-03-02T07:24:48;2.20;;;1.13;;
16906;SDS011;8570;52.380;4.654;2024-03-02T07:29:52;1.10;;;1.00;;
16906;SDS011;8570;52.380;4.654;2024-03-02T07:34:54;3.70;;;1.53;;
16906;SDS011;8570;52.380;4.654;2024-03-02T07:39:56;3.80;;;1.30;;
16906;SDS011;8570;52.380;4.654;2024-03-02T07:45:01;3.70;;;1.50;;
16906;SDS011;8570;52.380;4.654;2024-03-02T07:50:03;5.07;;;1.47;;
16906;SDS011;8570;52.380;4.654;2024-03-02T07:55:07;3.37;;;1.53;;
16906;SDS011;8570;52.380;4.654;2024-03-02T08:00:11;3.43;;;1.40;;
16906;SDS011;8570;52.380;4.654;2024-03-02T08:05:15;4.03;;;1.80;;
16906;SDS011;8570;52.380;4.654;2024-03-02T08:10:19;4.60;;;1.50;;
16906;SDS011;8570;52.380;4.654;2024-03-02T08:15:22;5.10;;;1.43;;
16906;SDS011;8570;52.380;4.654;2024-03-02T08:20:24;5.57;;;1.20;;
16906;SDS011;8570;52.380;4.654;2024-03-02T08:25:26;1.70;;;1.10;;
16906;SDS011;8570;52.380;4.654;2024-03-02T08:30:29;3.30;;;1.13;;
16906;SDS011;8570;52.380;4.654;2024-03-02T08:35:31;3.37;;;1.20;;
16906;SDS011;8570;52.380;4.654;2024-03-02T08:40:36;3.50;;;1.10;;
16906;SDS011;8570;52.380;4.654;2024-03-02T08:45:39;4.63;;;1.43;;
16906;SDS011;8570;52.380;4.654;2024-03-02T08:50:41;3.87;;;1.03;;
16906;SDS011;8570;52.380;4.654;2024-03-02T08:55:44;3.13;;;1.07;;
16906;SDS011;8570;52.380;4.654;2024-03-02T09:00:47;3.20;;;1.17;;
16906;SDS011;8570;52.380;4.654;2024-03-02T09:05:49;4.30;;;1.40;;
16906;SDS011;8570;52.380;4.654;2024-03-02T09:10:51;3.07;;;1.00;;
16906;SDS011;8570;52.380;4.654;2024-03-02T09:15:54;5.67;;;1.50;;
16906;SDS011;8570;52.380;4.654;2024-03-02T09:20:56;7.63;;;1.90;;
16906;SDS011;8570;52.380;4.654;2024-03-02T09:25:58;6.17;;;1.60;;
16906;SDS011;8570;52.380;4.654;2024-03-02T09:31:01;4.63;;;1.53;;
16906;SDS011;8570;52.380;4.654;2024-03-02T09:36:04;3.77;;;1.30;;
16906;SDS011;8570;52.380;4.654;2024-03-02T09:41:06;3.17;;;1.50;;
16906;SDS011;8570;52.380;4.654;2024-03-02T09:46:09;6.53;;;1.50;;
16906;SDS011;8570;52.380;4.654;2024-03-02T09:51:11;5.10;;;1.40;;
16906;SDS011;8570;52.380;4.654;2024-03-02T09:56:14;7.07;;;1.43;;
16906;SDS011;8570;52.380;4.654;2024-03-02T10:01:19;8.05;;;1.55;;
16906;SDS011;8570;52.380;4.654;2024-03-02T10:06:21;3.90;;;1.35;;
16906;SDS011;8570;52.380;4.654;2024-03-02T10:11:26;4.55;;;1.30;;
16906;SDS011;8570;52.380;4.654;2024-03-02T10:16:30;3.97;;;1.63;;
16906;SDS011;8570;52.380;4.654;2024-03-02T10:21:32;5.00;;;1.38;;
16906;SDS011;8570;52.380;4.654;2024-03-02T10:26:34;5.45;;;1.60;;
16906;SDS011;8570;52.380;4.654;2024-03-02T10:31:38;7.57;;;1.98;;
16906;SDS011;8570;52.380;4.654;2024-03-02T10:36:41;7.55;;;2.85;;
16906;SDS011;8570;52.380;4.654;2024-03-02T10:41:44;6.20;;;1.67;;
16906;SDS011;8570;52.380;4.654;2024-03-02T10:46:52;5.38;;;1.70;;
16906;SDS011;8570;52.380;4.654;2024-03-02T10:51:54;6.05;;;1.40;;
16906;SDS011;8570;52.380;4.654;2024-03-02T10:56:58;6.78;;;1.40;;
16906;SDS011;8570;52.380;4.654;2024-03-02T11:02:02;4.55;;;1.40;;
16906;SDS011;8570;52.380;4.654;2024-03-02T11:07:07;3.30;;;1.48;;
16906;SDS011;8570;52.380;4.654;2024-03-02T11:12:12;4.93;;;1.30;;
16906;SDS011;8570;52.380;4.654;2024-03-02T11:17:19;4.90;;;1.55;;
16906;SDS011;8570;52.380;4.654;2024-03-02T11:22:22;5.32;;;1.40;;
16906;SDS011;8570;52.380;4.654;2024-03-02T11:33:06;5.82;;;1.33;;
16906;SDS011;8570;52.380;4.654;2024-03-02T11:38:09;5.78;;;1.52;;
16906;SDS011;8570;52.380;4.654;2024-03-02T11:43:11;7.40;;;1.58;;
16906;SDS011;8570;52.380;4.654;2024-03-02T11:48:14;7.43;;;1.52;;
16906;SDS011;8570;52.380;4.654;2024-03-02T11:53:17;3.60;;;1.17;;
16906;SDS011;8570;52.380;4.654;2024-03-02T11:58:20;6.60;;;1.65;;
16906;SDS011;8570;52.380;4.654;2024-03-02T12:03:25;4.13;;;1.40;;
16906;SDS011;8570;52.380;4.654;2024-03-02T12:08:27;4.72;;;1.40;;
16906;SDS011;8570;52.380;4.654;2024-03-02T12:13:29;4.50;;;1.40;;
16906;SDS011;8570;52.380;4.654;2024-03-02T12:18:32;4.00;;;1.42;;
16906;SDS011;8570;52.380;4.654;2024-03-02T12:23:34;5.05;;;1.50;;
16906;SDS011;8570;52.380;4.654;2024-03-02T12:28:36;6.93;;;1.70;;
16906;SDS011;8570;52.380;4.654;2024-03-02T12:33:40;5.30;;;1.40;;
16906;SDS011;8570;52.380;4.654;2024-03-02T12:38:43;3.17;;;1.20;;
16906;SDS011;8570;52.380;4.654;2024-03-02T12:43:45;3.80;;;1.38;;
16906;SDS011;8570;52.380;4.654;2024-03-02T12:48:48;4.57;;;1.35;;
16906;SDS011;8570;52.380;4.654;2024-03-02T12:53:52;3.13;;;1.15;;
16906;SDS011;8570;52.380;4.654;2024-03-02T12:58:55;4.63;;;1.25;;
16906;SDS011;8570;52.380;4.654;2024-03-02T13:03:58;5.38;;;1.60;;
16906;SDS011;8570;52.380;4.654;2024-03-02T13:09:00;2.55;;;0.98;;
16906;SDS011;8570;52.380;4.654;2024-03-02T13:14:03;5.15;;;1.30;;
16906;SDS011;8570;52.380;4.654;2024-03-02T13:19:08;3.08;;;1.40;;
16906;SDS011;8570;52.380;4.654;2024-03-02T13:24:10;3.92;;;1.35;;
16906;SDS011;8570;52.380;4.654;2024-03-02T13:29:12;5.35;;;1.52;;
16906;SDS011;8570;52.380;4.654;2024-03-02T13:34:15;3.97;;;1.42;;
16906;SDS011;8570;52.380;4.654;2024-03-02T13:39:18;5.85;;;1.25;;
16906;SDS011;8570;52.380;4.654;2024-03-02T13:44:20;4.53;;;1.30;;
16906;SDS011;8570;52.380;4.654;2024-03-02T13:49:24;2.85;;;1.25;;
16906;SDS011;8570;52.380;4.654;2024-03-02T13:54:28;3.53;;;1.15;;
16906;SDS011;8570;52.380;4.654;2024-03-02T13:59:31;6.43;;;1.42;;
16906;SDS011;8570;52.380;4.654;2024-03-02T14:04:34;5.50;;;1.48;;
16906;SDS011;8570;52.380;4.654;2024-03-02T14:09:36;4.80;;;1.33;;
16906;SDS011;8570;52.380;4.654;2024-03-02T14:14:38;3.47;;;1.45;;
16906;SDS011;8570;52.380;4.654;2024-03-02T14:19:41;3.95;;;1.17;;
16906;SDS011;8570;52.380;4.654;2024-03-02T14:24:43;4.85;;;1.52;;
16906;SDS011;8570;52.380;4.654;2024-03-02T14:29:45;6.15;;;1.77;;
16906;SDS011;8570;52.380;4.654;2024-03-02T14:34:48;3.47;;;1.17;;
16906;SDS011;8570;52.380;4.654;2024-03-02T14:39:50;3.63;;;1.13;;
16906;SDS011;8570;52.380;4.654;2024-03-02T14:44:52;4.60;;;1.20;;
16906;SDS011;8570;52.380;4.654;2024-03-02T14:49:55;3.45;;;1.15;;
16906;SDS011;8570;52.380;4.654;2024-03-02T14:54:57;4.68;;;1.17;;
16906;SDS011;8570;52.380;4.654;2024-03-02T14:59:59;3.63;;;1.15;;
16906;SDS011;8570;52.380;4.654;2024-03-02T15:05:02;5.63;;;1.45;;
16906;SDS011;8570;52.380;4.654;2024-03-02T15:10:06;3.55;;;1.20;;
16906;SDS011;8570;52.380;4.654;2024-03-02T15:15:08;3.33;;;1.17;;
16906;SDS011;8570;52.380;4.654;2024-03-02T15:20:13;3.95;;;1.40;;
16906;SDS011;8570;52.380;4.654;2024-03-02T15:25:14;5.85;;;1.55;;
16906;SDS011;8570;52.380;4.654;2024-03-02T15:30:16;3.38;;;1.45;;
16906;SDS011;8570;52.380;4.654;2024-03-02T15:35:19;5.28;;;1.35;;
16906;SDS011;8570;52.380;4.654;2024-03-02T15:40:21;5.55;;;1.65;;
16906;SDS011;8570;52.380;4.654;2024-03-02T15:45:23;6.60;;;1.58;;
16906;SDS011;8570;52.380;4.654;2024-03-02T15:50:34;4.68;;;1.33;;
16906;SDS011;8570;52.380;4.654;2024-03-02T15:55:37;4.22;;;1.90;;
16906;SDS011;8570;52.380;4.654;2024-03-02T16:00:39;3.92;;;1.83;;
16906;SDS011;8570;52.380;4.654;2024-03-02T16:05:43;4.13;;;1.70;;
16906;SDS011;8570;52.380;4.654;2024-03-02T16:10:44;5.05;;;1.63;;
16906;SDS011;8570;52.380;4.654;2024-03-02T16:15:46;4.78;;;2.10;;
16906;SDS011;8570;52.380;4.654;2024-03-02T16:20:49;4.30;;;2.05;;
16906;SDS011;8570;52.380;4.654;2024-03-02T16:25:51;6.22;;;1.85;;
16906;SDS011;8570;52.380;4.654;2024-03-02T16:30:53;7.72;;;1.70;;
16906;SDS011;8570;52.380;4.654;2024-03-02T16:35:56;3.83;;;1.63;;
16906;SDS011;8570;52.380;4.654;2024-03-02T16:40:58;6.45;;;1.92;;
16906;SDS011;8570;52.380;4.654;2024-03-02T16:46:00;4.20;;;1.83;;
16906;SDS011;8570;52.380;4.654;2024-03-02T16:51:05;6.93;;;2.40;;
16906;SDS011;8570;52.380;4.654;2024-03-02T16:56:07;4.93;;;2.15;;
16906;SDS011;8570;52.380;4.654;2024-03-02T17:01:09;4.38;;;1.80;;
16906;SDS011;8570;52.380;4.654;2024-03-02T17:06:12;6.47;;;1.98;;
16906;SDS011;8570;52.380;4.654;2024-03-02T17:11:14;4.88;;;1.52;;
16906;SDS011;8570;52.380;4.654;2024-03-02T17:16:16;4.28;;;1.92;;
16906;SDS011;8570;52.380;4.654;2024-03-02T17:21:19;4.70;;;1.80;;
16906;SDS011;8570;52.380;4.654;2024-03-02T17:26:21;7.43;;;2.08;;
16906;SDS011;8570;52.380;4.654;2024-03-02T17:31:23;3.50;;;1.73;;
16906;SDS011;8570;52.380;4.654;2024-03-02T17:36:26;3.20;;;1.60;;
16906;SDS011;8570;52.380;4.654;2024-03-02T17:41:28;4.00;;;1.70;;
16906;SDS011;8570;52.380;4.654;2024-03-02T17:46:30;6.32;;;2.00;;
16906;SDS011;8570;52.380;4.654;2024-03-02T17:51:35;5.45;;;1.73;;
16906;SDS011;8570;52.380;4.654;2024-03-02T17:56:37;4.13;;;2.20;;
16906;SDS011;8570;52.380;4.654;2024-03-02T18:01:38;4.47;;;2.47;;
16906;SDS011;8570;52.380;4.654;2024-03-02T18:06:42;3.70;;;1.80;;
16906;SDS011;8570;52.380;4.654;2024-03-02T18:11:43;5.93;;;1.80;;
16906;SDS011;8570;52.380;4.654;2024-03-02T18:16:46;3.58;;;1.95;;
16906;SDS011;8570;52.380;4.654;2024-03-02T18:21:49;4.50;;;2.42;;
16906;SDS011;8570;52.380;4.654;2024-03-02T18:26:51;2.83;;;1.45;;
16906;SDS011;8570;52.380;4.654;2024-03-02T18:31:52;4.22;;;1.60;;
16906;SDS011;8570;52.380;4.654;2024-03-02T18:36:57;3.00;;;2.13;;
16906;SDS011;8570;52.380;4.654;2024-03-02T18:41:59;8.50;;;5.00;;
16906;SDS011;8570;52.380;4.654;2024-03-02T18:47:01;4.70;;;1.58;;
16906;SDS011;8570;52.380;4.654;2024-03-02T18:52:05;2.58;;;1.50;;
16906;SDS011;8570;52.380;4.654;2024-03-02T18:57:06;3.90;;;1.80;;
16906;SDS011;8570;52.380;4.654;2024-03-02T19:02:09;3.53;;;1.60;;
16906;SDS011;8570;52.380;4.654;2024-03-02T19:07:12;4.72;;;1.60;;
16906;SDS011;8570;52.380;4.654;2024-03-02T19:12:15;4.28;;;1.98;;
16906;SDS011;8570;52.380;4.654;2024-03-02T19:17:17;5.97;;;1.80;;
16906;SDS011;8570;52.380;4.654;2024-03-02T19:22:20;3.75;;;2.17;;
16906;SDS011;8570;52.380;4.654;2024-03-02T19:27:24;4.65;;;2.05;;
16906;SDS011;8570;52.380;4.654;2024-03-02T19:32:26;2.85;;;1.98;;
16906;SDS011;8570;52.380;4.654;2024-03-02T19:37:29;5.20;;;2.00;;
16906;SDS011;8570;52.380;4.654;2024-03-02T19:42:31;3.33;;;2.00;;
16906;SDS011;8570;52.380;4.654;2024-03-02T19:47:34;3.03;;;1.70;;
16906;SDS011;8570;52.380;4.654;2024-03-02T19:52:38;7.35;;;2.03;;
16906;SDS011;8570;52.380;4.654;2024-03-02T19:57:39;4.38;;;1.90;;
16906;SDS011;8570;52.380;4.654;2024-03-02T20:02:44;3.33;;;2.20;;
16906;SDS011;8570;52.380;4.654;2024-03-02T20:07:47;4.13;;;2.30;;
16906;SDS011;8570;52.380;4.654;2024-03-02T20:12:49;4.68;;;2.47;;
16906;SDS011;8570;52.380;4.654;2024-03-02T20:17:51;4.40;;;2.20;;
16906;SDS011;8570;52.380;4.654;2024-03-02T20:22:56;4.30;;;2.03;;
16906;SDS011;8570;52.380;4.654;2024-03-02T20:27:58;3.00;;;1.90;;
16906;SDS011;8570;52.380;4.654;2024-03-02T20:33:00;2.85;;;2.00;;
16906;SDS011;8570;52.380;4.654;2024-03-02T20:38:03;2.72;;;2.10;;
16906;SDS011;8570;52.380;4.654;2024-03-02T20:43:05;2.65;;;1.90;;
16906;SDS011;8570;52.380;4.654;2024-03-02T20:48:07;3.45;;;2.20;;
16906;SDS011;8570;52.380;4.654;2024-03-02T20:53:10;3.25;;;2.10;;
16906;SDS011;8570;52.380;4.654;2024-03-02T20:58:12;2.50;;;2.20;;
16906;SDS011;8570;52.380;4.654;2024-03-02T21:03:14;3.17;;;2.13;;
16906;SDS011;8570;52.380;4.654;2024-03-02T21:08:18;3.30;;;2.33;;
16906;SDS011;8570;52.380;4.654;2024-03-02T21:13:19;3.33;;;2.35;;
16906;SDS011;8570;52.380;4.654;2024-03-02T21:18:21;3.38;;;2.47;;
16906;SDS011;8570;52.380;4.654;2024-03-02T21:23:24;3.13;;;2.45;;
16906;SDS011;8570;52.380;4.654;2024-03-02T21:28:29;3.17;;;2.22;;
16906;SDS011;8570;52.380;4.654;2024-03-02T21:33:31;5.82;;;2.60;;
16906;SDS011;8570;52.380;4.654;2024-03-02T21:38:37;2.58;;;2.03;;
16906;SDS011;8570;52.380;4.654;2024-03-02T21:43:38;3.63;;;2.33;;
16906;SDS011;8570;52.380;4.654;2024-03-02T21:48:41;4.65;;;2.92;;
16906;SDS011;8570;52.380;4.654;2024-03-02T21:53:45;3.35;;;2.70;;
16906;SDS011;8570;52.380;4.654;2024-03-02T21:59:01;3.65;;;2.75;;
16906;SDS011;8570;52.380;4.654;2024-03-02T22:04:11;9.75;;;2.58;;
16906;SDS011;8570;52.380;4.654;2024-03-02T22:09:17;3.50;;;2.92;;
16906;SDS011;8570;52.380;4.654;2024-03-02T22:14:19;4.60;;;3.13;;
16906;SDS011;8570;52.380;4.654;2024-03-02T22:19:21;5.75;;;3.20;;
16906;SDS011;8570;52.380;4.654;2024-03-02T22:24:26;3.80;;;3.00;;
16906;SDS011;8570;52.380;4.654;2024-03-02T22:29:29;4.85;;;3.03;;
16906;SDS011;8570;52.380;4.654;2024-03-02T22:34:31;3.90;;;2.85;;
16906;SDS011;8570;52.380;4.654;2024-03-02T22:39:36;5.95;;;4.30;;
16906;SDS011;8570;52.380;4.654;2024-03-02T22:44:38;3.28;;;2.97;;
16906;SDS011;8570;52.380;4.654;2024-03-02T22:49:40;7.55;;;3.13;;
16906;SDS011;8570;52.380;4.654;2024-03-02T22:54:45;4.85;;;3.30;;
16906;SDS011;8570;52.380;4.654;2024-03-02T22:59:49;3.67;;;2.90;;
16906;SDS011;8570;52.380;4.654;2024-03-02T23:04:52;4.70;;;3.10;;
16906;SDS011;8570;52.380;4.654;2024-03-02T23:09:58;3.70;;;2.90;;
16906;SDS011;8570;52.380;4.654;2024-03-02T23:15:00;9.13;;;4.40;;
16906;SDS011;8570;52.380;4.654;2024-03-02T23:20:05;7.25;;;3.30;;
16906;SDS011;8570;52.380;4.654;2024-03-02T23:25:10;5.47;;;3.47;;
16906;SDS011;8570;52.380;4.654;2024-03-02T23:30:21;3.58;;;3.17;;
16906;SDS011;8570;52.380;4.654;2024-03-02T23:35:24;5.55;;;3.90;;
16906;SDS011;8570;52.380;4.654;2024-03-02T23:40:28;5.40;;;2.95;;
16906;SDS011;8570;52.380;4.654;2024-03-02T23:45:55;4.07;;;3.30;;
16906;SDS011;8570;52.380;4.654;2024-03-02T23:50:57;5.10;;;3.70;;
16906;SDS011;8570;52.380;4.654;2024-03-02T23:56:08;3.80;;;3.25;;
